Pagina principale
METAR-TAF:

METAR-TAF

Aeroporti :

Aeroporto di Nizza Costa Azzurra

Nizza, Francia

latitudine: 43-39N, longitudine: 007-12E, altezza: 4 m

Osservazione

Il bollettino è stato emesso 42 minuti fa, alle 00:30 UTC
Vento 9 kt da nord-ovest
Temperature 17°C
Umidità 68%
Pressione 1015 hPa
Visibilità 10 km o più
nessuna nube inferiore a 1500 m e nessun cumulonembo

METAR: LFMN 310030Z AUTO 32009KT CAVOK 17/11 Q1015 NOSIG

Ora: 03:12 (01:12 UTC)

Previsione

Il bollettino è stato emesso 5 ore e 12 minuti fa, alle 20:00 UTC
Previsione valida dal 30 alle 21 UTC al 01 alle 03 UTC
Vento 3 kt da direzioni variabili
Visibilità 10 km o più
Nuvoloso ad un'altezza di 10000 ft
Evoluzione graduale
dal 30 alle 22 UTC al 30 alle 23 UTC
Visibilità 10 km o più
nessuna nube inferiore a 1500 m e nessun cumulonembo
Temporaneamente
dal 31 alle 08 UTC al 31 alle 13 UTC
Vento 12 kt da est

TAF: LFMN 302000Z 3021/0103 VRB03KT 9999 BKN100 BECMG 3022/3023 CAVOK TEMPO 3108/3113 09012KT

Osservazioni e previsioni meteorologiche di più di 4000 aeroporti (messaggi METAR e TAF).

Le stazioni disponibili sono rappresentate dai dischi gialli e rossi sulla carta.

Puntare il mouse per vedere il nome della stazione.

Clicca sopra per visualizzare le osservazioni e previsioni meteorologiche.

Per cambiare la mappa : fare clic sui pulsanti verdi con una croce nera per ingrandire, il pulsante verde con un trattino per diminuire, o sulla freccia verde per le mappe adiacenti.


METAR-TAF: